createdAt,value
2018-12-20T00:00:43.488Z,24.77
2018-12-20T00:03:12.176Z,23.73
2018-12-20T00:05:40.800Z,24.93
2018-12-20T00:08:09.412Z,24.43
2018-12-20T00:10:38.214Z,23.90
2018-12-20T00:13:07.447Z,23.47
2018-12-20T00:15:35.941Z,24.00
2018-12-20T00:18:04.543Z,22.33
2018-12-20T00:20:33.216Z,23.93
2018-12-20T00:23:01.882Z,24.17
2018-12-20T00:25:30.637Z,23.40
2018-12-20T00:27:59.258Z,23.37
2018-12-20T00:30:27.887Z,23.77
2018-12-20T00:32:56.533Z,25.70
2018-12-20T00:35:25.170Z,24.60
2018-12-20T00:37:53.773Z,23.97
2018-12-20T00:40:22.284Z,23.37
2018-12-20T00:42:50.833Z,24.87
2018-12-20T00:45:19.453Z,23.23
2018-12-20T00:47:48.058Z,24.67
2018-12-20T00:50:16.726Z,22.77
2018-12-20T00:52:45.435Z,22.03
2018-12-20T00:55:14.180Z,23.47
2018-12-20T00:57:42.798Z,22.73
2018-12-20T01:00:12.009Z,23.03
2018-12-20T01:02:40.656Z,23.03
2018-12-20T01:05:09.163Z,22.60
2018-12-20T01:07:37.670Z,22.10
2018-12-20T01:10:07.168Z,22.03
2018-12-20T01:12:36.045Z,22.03
2018-12-20T01:15:05.714Z,22.33
2018-12-20T01:17:39.767Z,22.07
2018-12-20T01:20:10.867Z,21.83
2018-12-20T01:22:39.497Z,22.13
2018-12-20T01:25:08.126Z,22.23
2018-12-20T01:27:36.707Z,23.30
2018-12-20T01:30:07.251Z,22.17
2018-12-20T01:32:35.825Z,23.73
2018-12-20T01:35:04.580Z,23.63
2018-12-20T01:37:33.214Z,23.40
2018-12-20T01:40:01.686Z,22.57
2018-12-20T01:42:30.181Z,24.10
2018-12-20T01:44:58.790Z,23.60
2018-12-20T01:47:27.634Z,24.03
2018-12-20T01:49:56.654Z,22.30
2018-12-20T01:52:25.360Z,22.77
2018-12-20T01:54:54.618Z,24.07
2018-12-20T01:57:23.927Z,21.00
2018-12-20T01:59:53.346Z,20.57
2018-12-20T02:02:22.234Z,21.73
2018-12-20T02:04:50.971Z,21.93
2018-12-20T02:07:19.546Z,21.30
2018-12-20T02:09:48.448Z,21.50
2018-12-20T02:12:16.983Z,20.87
2018-12-20T02:14:45.611Z,22.53
2018-12-20T02:17:14.263Z,22.00
2018-12-20T02:19:42.819Z,22.00
2018-12-20T02:22:11.441Z,21.87
2018-12-20T02:24:39.995Z,21.33
2018-12-20T02:27:08.716Z,21.07
2018-12-20T02:29:38.107Z,21.20
2018-12-20T02:32:06.861Z,21.60
2018-12-20T02:34:35.425Z,21.40
2018-12-20T02:37:04.028Z,22.40
2018-12-20T02:39:32.618Z,22.90
2018-12-20T02:42:01.131Z,22.27
2018-12-20T02:44:29.745Z,23.50
2018-12-20T02:46:58.302Z,22.60
2018-12-20T02:49:26.780Z,23.30
2018-12-20T02:51:55.250Z,21.73
2018-12-20T02:54:23.890Z,21.50
2018-12-20T02:56:52.626Z,23.80
2018-12-20T02:59:21.152Z,22.53
2018-12-20T03:01:49.813Z,22.00
2018-12-20T03:04:18.327Z,23.43
2018-12-20T03:06:46.859Z,23.47
2018-12-20T03:09:15.536Z,22.93
2018-12-20T03:11:44.089Z,23.73
2018-12-20T03:14:12.680Z,23.03
2018-12-20T03:16:41.264Z,22.20
2018-12-20T03:19:10.473Z,22.60
2018-12-20T03:21:39.755Z,23.97
2018-12-20T03:24:08.312Z,22.83
2018-12-20T03:26:37.159Z,21.40
2018-12-20T03:29:06.077Z,22.67
2018-12-20T03:31:34.914Z,24.13
2018-12-20T03:34:03.532Z,23.70
2018-12-20T03:36:32.018Z,21.53
2018-12-20T03:39:00.489Z,24.87
2018-12-20T03:41:29.280Z,40.37
2018-12-20T03:43:57.826Z,33.03
2018-12-20T03:46:26.391Z,28.47
2018-12-20T03:48:55.218Z,25.50
2018-12-20T03:51:24.644Z,30.87
2018-12-20T03:53:54.174Z,49.57
2018-12-20T03:56:23.005Z,37.17
2018-12-20T03:58:51.691Z,25.13
2018-12-20T04:01:20.263Z,41.70
2018-12-20T04:03:49.521Z,51.30
2018-12-20T04:06:18.161Z,23.63
2018-12-20T04:08:46.641Z,24.17
2018-12-20T04:11:15.257Z,32.10
2018-12-20T04:13:44.139Z,33.20
2018-12-20T04:16:12.984Z,37.13
2018-12-20T04:18:41.492Z,60.87
2018-12-20T04:21:10.447Z,24.10
2018-12-20T04:23:39.107Z,27.90
2018-12-20T04:26:07.821Z,23.03
2018-12-20T04:28:36.395Z,24.43
2018-12-20T04:31:05.566Z,22.33
2018-12-20T04:33:34.154Z,31.67
2018-12-20T04:36:02.732Z,53.03
2018-12-20T04:38:31.441Z,24.07
2018-12-20T04:41:00.089Z,28.33
2018-12-20T04:43:29.270Z,22.27
2018-12-20T04:45:57.974Z,22.07
2018-12-20T04:48:26.665Z,21.43
2018-12-20T04:50:55.330Z,21.77
2018-12-20T04:53:24.805Z,22.00
2018-12-20T04:55:53.506Z,22.17
2018-12-20T04:58:22.769Z,24.93
2018-12-20T05:00:51.497Z,24.83
2018-12-20T05:03:20.002Z,21.00
2018-12-20T05:05:48.852Z,23.23
2018-12-20T05:08:17.483Z,21.97
2018-12-20T05:10:46.136Z,22.07
2018-12-20T05:13:15.030Z,22.77
2018-12-20T05:15:43.795Z,21.50
2018-12-20T05:18:12.447Z,21.10
2018-12-20T05:20:41.216Z,22.20
2018-12-20T05:23:09.933Z,22.57
2018-12-20T05:25:38.619Z,22.87
2018-12-20T05:28:07.368Z,23.67
2018-12-20T05:30:35.963Z,22.70
2018-12-20T05:33:04.506Z,22.40
2018-12-20T05:35:33.100Z,24.07
2018-12-20T05:38:01.697Z,22.77
2018-12-20T05:40:30.287Z,22.30
2018-12-20T05:42:58.836Z,24.10
2018-12-20T05:45:27.837Z,24.03
2018-12-20T05:47:56.675Z,23.93
2018-12-20T05:50:25.480Z,25.67
2018-12-20T05:52:54.400Z,24.80
2018-12-20T05:55:25.419Z,26.87
2018-12-20T05:57:57.055Z,24.07
2018-12-20T06:00:26.871Z,26.60
2018-12-20T06:02:56.922Z,25.73
2018-12-20T06:05:25.897Z,26.03
2018-12-20T06:07:54.718Z,23.27
2018-12-20T06:10:24.039Z,26.77
2018-12-20T06:12:52.978Z,26.00
2018-12-20T06:15:21.833Z,25.03
2018-12-20T06:17:50.926Z,24.20
2018-12-20T06:20:19.745Z,23.77
2018-12-20T06:22:48.605Z,24.23
2018-12-20T06:25:17.235Z,24.83
2018-12-20T06:27:46.376Z,24.57
2018-12-20T06:30:15.339Z,23.23
2018-12-20T06:32:43.989Z,24.73
2018-12-20T06:35:12.861Z,25.27
2018-12-20T06:37:41.580Z,23.10
2018-12-20T06:40:10.215Z,23.63
2018-12-20T06:42:38.881Z,23.13
2018-12-20T06:45:07.551Z,24.17
2018-12-20T06:47:36.386Z,23.60
2018-12-20T06:50:05.301Z,22.33
2018-12-20T06:52:34.187Z,22.80
2018-12-20T06:55:03.229Z,23.83
2018-12-20T06:57:31.826Z,23.40
2018-12-20T07:00:00.427Z,22.23
2018-12-20T07:02:28.879Z,23.80
2018-12-20T07:04:57.478Z,23.37
2018-12-20T07:07:26.385Z,22.90
2018-12-20T07:09:54.923Z,21.97
2018-12-20T07:12:23.490Z,22.60
2018-12-20T07:14:51.986Z,21.73
2018-12-20T07:17:20.479Z,21.60
2018-12-20T07:19:48.971Z,22.73
2018-12-20T07:22:18.087Z,22.53
2018-12-20T07:24:46.681Z,21.03
2018-12-20T07:27:15.150Z,20.43
2018-12-20T07:29:43.714Z,22.10
2018-12-20T07:32:12.594Z,20.03
2018-12-20T07:34:47.741Z,21.20
2018-12-20T07:37:11.702Z,21.80
2018-12-20T07:39:40.217Z,20.60
2018-12-20T07:42:08.798Z,22.00
2018-12-20T07:44:37.660Z,22.33
2018-12-20T07:47:06.394Z,21.43
2018-12-20T07:49:34.991Z,22.33
2018-12-20T07:52:04.004Z,20.13
2018-12-20T07:54:32.720Z,21.27
2018-12-20T07:57:01.667Z,19.93
2018-12-20T07:59:30.172Z,19.00
2018-12-20T08:01:58.645Z,18.47
2018-12-20T08:04:27.151Z,19.40
2018-12-20T08:06:56.565Z,18.67
2018-12-20T08:09:25.040Z,18.83
2018-12-20T08:11:53.550Z,19.03
2018-12-20T08:14:22.097Z,19.13
2018-12-20T08:16:50.759Z,18.30
2018-12-20T08:19:19.285Z,18.30
2018-12-20T08:21:47.769Z,17.60
2018-12-20T08:24:16.894Z,16.97
2018-12-20T08:26:45.418Z,18.67
2018-12-20T08:29:14.817Z,16.83
2018-12-20T08:31:43.419Z,17.20
2018-12-20T08:34:11.987Z,17.70
2018-12-20T08:36:40.489Z,16.37
2018-12-20T08:39:09.282Z,18.10
2018-12-20T08:41:37.769Z,19.27
2018-12-20T08:44:06.294Z,18.30
2018-12-20T08:46:34.950Z,17.50
2018-12-20T08:49:03.537Z,18.90
2018-12-20T08:51:32.044Z,17.57
2018-12-20T08:54:00.539Z,17.50
2018-12-20T08:56:29.059Z,19.20
2018-12-20T08:58:57.555Z,17.03
2018-12-20T09:01:26.245Z,17.23
2018-12-20T09:03:54.941Z,17.27
2018-12-20T09:06:24.550Z,16.90
2018-12-20T09:08:55.011Z,17.47
2018-12-20T09:11:23.553Z,17.97
2018-12-20T09:13:52.719Z,16.57
2018-12-20T09:16:21.241Z,16.33
2018-12-20T09:18:49.871Z,15.00
2018-12-20T09:21:18.467Z,15.53
2018-12-20T09:23:47.083Z,13.97
2018-12-20T09:26:15.539Z,13.97
2018-12-20T09:28:44.066Z,13.83
2018-12-20T09:31:13.328Z,14.63
2018-12-20T09:33:41.853Z,14.23
2018-12-20T09:36:10.447Z,12.93
2018-12-20T09:38:38.994Z,12.97
2018-12-20T09:41:07.877Z,14.10
2018-12-20T09:43:36.373Z,12.87
2018-12-20T09:46:04.907Z,13.00
2018-12-20T09:48:33.599Z,12.20
2018-12-20T09:51:02.173Z,13.70
2018-12-20T09:53:30.794Z,11.47
2018-12-20T09:55:59.418Z,12.63
2018-12-20T09:58:27.990Z,12.67
2018-12-20T10:00:57.112Z,12.83
2018-12-20T10:03:25.619Z,12.13
2018-12-20T10:05:54.299Z,11.97
2018-12-20T10:08:22.795Z,12.57
2018-12-20T10:10:51.488Z,11.23
2018-12-20T10:13:20.159Z,12.53
2018-12-20T10:15:48.646Z,12.03
2018-12-20T10:18:17.171Z,12.07
2018-12-20T10:20:45.738Z,12.13
2018-12-20T10:23:14.516Z,11.17
2018-12-20T10:25:43.026Z,11.53
2018-12-20T10:28:11.590Z,9.73
2018-12-20T10:30:40.109Z,9.67
2018-12-20T10:33:08.702Z,10.70
2018-12-20T10:35:37.163Z,9.60
2018-12-20T10:38:05.636Z,9.77
2018-12-20T10:40:35.162Z,10.20
2018-12-20T10:43:03.691Z,9.20
2018-12-20T10:45:32.787Z,8.77
2018-12-20T10:48:01.662Z,8.70
2018-12-20T10:50:30.257Z,8.40
2018-12-20T10:52:59.722Z,8.83
2018-12-20T10:55:28.775Z,9.40
2018-12-20T10:57:57.270Z,8.80
2018-12-20T11:00:25.737Z,8.10
2018-12-20T11:03:00.699Z,9.33
2018-12-20T11:05:34.626Z,9.33
2018-12-20T11:08:08.513Z,8.20
2018-12-20T11:10:37.700Z,8.23
2018-12-20T11:13:13.230Z,8.43
2018-12-20T11:15:41.831Z,8.80
2018-12-20T11:18:10.406Z,8.50
2018-12-20T11:20:39.393Z,9.43
2018-12-20T11:23:08.158Z,8.03
2018-12-20T11:25:36.990Z,7.73
2018-12-20T11:28:08.215Z,8.17
2018-12-20T11:30:37.829Z,8.17
2018-12-20T11:33:07.863Z,8.80
2018-12-20T11:35:36.353Z,7.30
2018-12-20T11:38:04.847Z,8.20
2018-12-20T11:40:33.559Z,8.50
2018-12-20T11:43:02.405Z,7.90
2018-12-20T11:45:30.851Z,7.77
2018-12-20T11:48:00.574Z,7.07
2018-12-20T11:50:31.132Z,7.60
2018-12-20T11:53:00.833Z,7.17
2018-12-20T11:55:29.442Z,6.37
2018-12-20T11:57:57.901Z,6.00
2018-12-20T12:00:26.370Z,5.73
2018-12-20T12:02:55.053Z,5.70
2018-12-20T12:05:23.522Z,6.03
2018-12-20T12:07:52.042Z,4.60
2018-12-20T12:10:20.583Z,4.43
2018-12-20T12:12:49.055Z,4.30
2018-12-20T12:15:17.560Z,4.43
2018-12-20T12:17:54.031Z,4.50
2018-12-20T12:20:17.042Z,4.73
2018-12-20T12:22:45.494Z,4.97
2018-12-20T12:25:14.097Z,4.67
2018-12-20T12:27:42.667Z,4.67
2018-12-20T12:30:11.311Z,4.67
2018-12-20T12:32:40.003Z,5.43
2018-12-20T12:35:08.520Z,4.80
2018-12-20T12:37:36.994Z,4.83
2018-12-20T12:40:06.529Z,5.00
2018-12-20T12:42:35.042Z,4.83
2018-12-20T12:45:03.723Z,5.17
2018-12-20T12:48:04.120Z,5.47
2018-12-20T12:50:32.837Z,5.93
2018-12-20T12:53:01.391Z,5.17
2018-12-20T12:55:29.964Z,5.53
2018-12-20T12:58:04.655Z,6.50
2018-12-20T13:00:29.166Z,5.97
2018-12-20T13:02:57.655Z,6.33
2018-12-20T13:05:26.116Z,5.50
2018-12-20T13:07:54.841Z,5.77
2018-12-20T13:10:23.857Z,5.67
2018-12-20T13:12:52.432Z,5.57
2018-12-20T13:15:20.938Z,5.87
2018-12-20T13:17:49.402Z,5.20
2018-12-20T13:20:17.915Z,6.10
2018-12-20T13:22:46.502Z,6.80
2018-12-20T13:25:15.095Z,7.47
2018-12-20T13:27:43.704Z,7.27
2018-12-20T13:30:13.211Z,8.13
2018-12-20T13:32:41.687Z,7.90
2018-12-20T13:35:10.307Z,8.40
2018-12-20T13:37:39.757Z,8.30
2018-12-20T13:40:09.048Z,7.87
2018-12-20T13:42:37.530Z,7.90
2018-12-20T13:45:06.505Z,8.40
2018-12-20T13:47:35.170Z,9.07
2018-12-20T13:50:03.818Z,8.73
2018-12-20T13:52:33.889Z,10.20
2018-12-20T13:55:02.483Z,9.93
2018-12-20T13:57:30.965Z,9.73
2018-12-20T13:59:59.510Z,9.03
2018-12-20T14:02:28.095Z,9.13
2018-12-20T14:04:56.783Z,9.17
2018-12-20T14:07:25.273Z,10.60
2018-12-20T14:09:54.358Z,9.93
2018-12-20T14:12:22.817Z,9.07
2018-12-20T14:14:51.270Z,10.03
2018-12-20T14:17:19.755Z,10.10
2018-12-20T14:19:48.238Z,9.93
2018-12-20T14:22:16.842Z,10.50
2018-12-20T14:24:45.297Z,9.77
2018-12-20T14:27:13.881Z,8.47
2018-12-20T14:29:42.385Z,8.87
2018-12-20T14:32:11.018Z,8.57
2018-12-20T14:34:39.549Z,8.93
2018-12-20T14:37:08.014Z,8.63
2018-12-20T14:39:37.261Z,9.50
2018-12-20T14:42:05.741Z,7.27
2018-12-20T14:44:34.612Z,7.20
2018-12-20T14:47:03.097Z,7.47
2018-12-20T14:49:31.615Z,6.40
2018-12-20T14:52:00.108Z,5.20
2018-12-20T14:54:28.662Z,5.20
2018-12-20T14:56:57.182Z,6.90
2018-12-20T14:59:27.577Z,7.20
2018-12-20T15:01:57.086Z,5.97
2018-12-20T15:04:25.880Z,6.50
2018-12-20T15:06:54.440Z,7.00
2018-12-20T15:09:23.073Z,6.03
2018-12-20T15:11:51.592Z,6.40
2018-12-20T15:14:20.193Z,5.80
2018-12-20T15:16:48.784Z,5.10
2018-12-20T15:19:17.482Z,3.33
2018-12-20T15:21:46.037Z,3.67
2018-12-20T15:24:15.171Z,3.37
2018-12-20T15:26:43.666Z,3.47
2018-12-20T15:29:12.146Z,3.73
2018-12-20T15:31:40.690Z,3.20
2018-12-20T15:34:09.155Z,4.00
2018-12-20T15:36:37.706Z,3.87
2018-12-20T15:39:07.881Z,5.33
2018-12-20T15:41:37.039Z,5.63
2018-12-20T15:44:05.508Z,5.37
2018-12-20T15:46:34.121Z,5.33
2018-12-20T15:49:03.994Z,6.10
2018-12-20T15:51:33.827Z,6.00
2018-12-20T15:54:02.395Z,5.63
2018-12-20T15:56:30.874Z,6.30
2018-12-20T15:58:59.438Z,6.03
2018-12-20T16:01:27.959Z,6.60
2018-12-20T16:03:56.521Z,6.80
2018-12-20T16:06:25.026Z,7.93
2018-12-20T16:08:53.594Z,7.53
2018-12-20T16:11:22.106Z,6.73
2018-12-20T16:13:50.534Z,5.30
2018-12-20T16:16:19.747Z,6.10
2018-12-20T16:18:48.261Z,6.10
2018-12-20T16:21:16.758Z,6.10
2018-12-20T16:23:45.207Z,5.70
2018-12-20T16:26:13.681Z,5.80
2018-12-20T16:28:42.237Z,5.40
2018-12-20T16:31:11.349Z,6.23
2018-12-20T16:33:39.802Z,5.73
2018-12-20T16:36:08.456Z,4.97
2018-12-20T16:38:37.009Z,5.63
2018-12-20T16:41:05.579Z,5.83
2018-12-20T16:43:34.139Z,6.27
2018-12-20T16:46:02.609Z,5.10
2018-12-20T16:48:31.215Z,5.03
2018-12-20T16:50:59.689Z,5.20
2018-12-20T16:53:28.202Z,5.50
2018-12-20T16:55:56.774Z,5.30
2018-12-20T16:58:26.329Z,5.27
2018-12-20T17:00:54.816Z,5.97
2018-12-20T17:03:23.367Z,7.80
2018-12-20T17:05:51.843Z,5.63
2018-12-20T17:08:20.340Z,7.03
2018-12-20T17:10:48.833Z,5.60
2018-12-20T17:13:17.306Z,6.60
2018-12-20T17:15:45.830Z,5.10
2018-12-20T17:18:14.325Z,6.37
2018-12-20T17:20:42.830Z,5.53
2018-12-20T17:23:11.310Z,6.33
2018-12-20T17:25:39.808Z,5.73
2018-12-20T17:28:09.006Z,5.27
2018-12-20T17:30:37.550Z,6.40
2018-12-20T17:33:06.017Z,5.53
2018-12-20T17:35:34.514Z,6.63
2018-12-20T17:38:02.999Z,6.23
2018-12-20T17:40:31.483Z,5.97
2018-12-20T17:43:00.178Z,6.30
2018-12-20T17:45:29.041Z,6.17
2018-12-20T17:47:57.496Z,5.93
2018-12-20T17:50:26.063Z,6.40
2018-12-20T17:52:54.525Z,6.57
2018-12-20T17:55:23.039Z,5.70
2018-12-20T17:57:51.519Z,5.57
2018-12-20T18:00:20.047Z,5.77
2018-12-20T18:02:48.498Z,6.73
2018-12-20T18:05:16.986Z,6.07
2018-12-20T18:07:45.457Z,5.47
2018-12-20T18:10:14.178Z,5.07
2018-12-20T18:12:42.725Z,5.67
2018-12-20T18:15:12.390Z,6.20
2018-12-20T18:17:40.925Z,4.73
2018-12-20T18:20:11.376Z,5.30
2018-12-20T18:22:40.714Z,5.33
2018-12-20T18:25:09.225Z,5.20
2018-12-20T18:27:37.753Z,5.10
2018-12-20T18:30:09.643Z,5.00
2018-12-20T18:32:38.209Z,4.70
2018-12-20T18:35:07.351Z,5.43
2018-12-20T18:37:35.874Z,4.73
2018-12-20T18:40:05.202Z,5.50
2018-12-20T18:42:33.655Z,4.53
2018-12-20T18:45:02.187Z,4.63
2018-12-20T18:47:30.742Z,4.47
2018-12-20T18:49:59.234Z,5.03
2018-12-20T18:52:28.628Z,6.23
2018-12-20T18:54:57.277Z,5.50
2018-12-20T18:57:25.799Z,5.10
2018-12-20T18:59:54.394Z,4.90
2018-12-20T19:02:23.986Z,4.93
2018-12-20T19:04:52.478Z,5.10
2018-12-20T19:07:21.407Z,4.90
2018-12-20T19:09:52.225Z,4.83
2018-12-20T19:12:25.331Z,4.63
2018-12-20T19:14:54.872Z,4.60
2018-12-20T19:17:23.434Z,4.77
2018-12-20T19:19:56.563Z,4.50
2018-12-20T19:22:23.413Z,4.60
2018-12-20T19:24:52.086Z,3.67
2018-12-20T19:27:20.566Z,4.30
2018-12-20T19:29:49.779Z,3.47
2018-12-20T19:32:18.360Z,3.40
2018-12-20T19:34:47.159Z,3.40
2018-12-20T19:37:15.676Z,3.47
2018-12-20T19:39:45.404Z,2.63
2018-12-20T19:42:16.415Z,2.80
2018-12-20T19:44:44.902Z,3.40
2018-12-20T19:47:13.453Z,2.67
2018-12-20T19:49:42.772Z,2.97
2018-12-20T19:52:11.243Z,3.13
2018-12-20T19:54:47.791Z,4.07
2018-12-20T19:57:10.330Z,3.70
2018-12-20T19:59:39.024Z,3.60
2018-12-20T20:02:07.653Z,4.00
2018-12-20T20:04:36.139Z,3.67
2018-12-20T20:07:04.798Z,3.27
2018-12-20T20:09:33.287Z,3.27
2018-12-20T20:12:01.801Z,4.00
2018-12-20T20:14:30.302Z,3.00
2018-12-20T20:16:58.982Z,2.77
2018-12-20T20:19:27.506Z,2.43
2018-12-20T20:21:55.966Z,2.43
2018-12-20T20:24:24.496Z,2.53
2018-12-20T20:26:53.162Z,1.90
2018-12-20T20:29:22.120Z,2.40
2018-12-20T20:31:50.971Z,2.30
2018-12-20T20:34:19.902Z,2.13
2018-12-20T20:36:48.691Z,2.43
2018-12-20T20:39:17.202Z,2.40
2018-12-20T20:41:48.442Z,2.30
2018-12-20T20:44:16.978Z,2.40
2018-12-20T20:46:45.477Z,2.30
2018-12-20T20:49:14.804Z,1.83
2018-12-20T20:51:44.365Z,1.70
2018-12-20T20:54:13.524Z,2.20
2018-12-20T20:56:42.318Z,1.63
2018-12-20T20:59:11.086Z,2.53
2018-12-20T21:01:39.580Z,1.90
2018-12-20T21:04:08.942Z,2.17
2018-12-20T21:06:37.579Z,2.10
2018-12-20T21:09:08.164Z,1.90
2018-12-20T21:11:36.625Z,2.53
2018-12-20T21:14:05.483Z,2.00
2018-12-20T21:16:33.994Z,2.57
2018-12-20T21:19:03.534Z,2.17
2018-12-20T21:21:32.608Z,2.60
2018-12-20T21:24:01.608Z,2.93
2018-12-20T21:26:30.401Z,1.93
2018-12-20T21:28:58.881Z,3.33
2018-12-20T21:31:28.105Z,1.60
2018-12-20T21:33:56.702Z,2.60
2018-12-20T21:36:25.530Z,1.67
2018-12-20T21:38:54.653Z,2.60
2018-12-20T21:41:23.212Z,2.87
2018-12-20T21:43:52.386Z,1.90
2018-12-20T21:46:21.485Z,1.90
2018-12-20T21:48:50.034Z,1.80
2018-12-20T21:51:19.254Z,1.80
2018-12-20T21:53:54.854Z,1.93
2018-12-20T21:56:18.998Z,2.20
2018-12-20T21:58:48.357Z,1.97
2018-12-20T22:01:16.957Z,1.97
2018-12-20T22:03:45.527Z,1.67
2018-12-20T22:06:14.274Z,1.60
2018-12-20T22:08:42.825Z,1.43
2018-12-20T22:11:11.692Z,1.33
2018-12-20T22:13:40.854Z,1.50
2018-12-20T22:16:09.647Z,1.77
2018-12-20T22:18:38.669Z,1.50
2018-12-20T22:21:07.339Z,1.47
2018-12-20T22:23:35.852Z,1.50
2018-12-20T22:26:04.362Z,1.50
2018-12-20T22:28:32.891Z,1.60
2018-12-20T22:31:01.382Z,0.90
2018-12-20T22:33:30.183Z,1.20
2018-12-20T22:35:58.802Z,1.03
2018-12-20T22:38:27.277Z,1.33
2018-12-20T22:40:55.865Z,1.00
2018-12-20T22:43:24.673Z,1.20
2018-12-20T22:45:53.134Z,1.37
2018-12-20T22:48:21.629Z,1.40
2018-12-20T22:50:55.898Z,1.30
2018-12-20T22:53:20.675Z,1.50
2018-12-20T22:55:49.397Z,1.57
2018-12-20T22:58:18.313Z,1.47
2018-12-20T23:00:54.112Z,1.20
2018-12-20T23:03:23.001Z,1.50
2018-12-20T23:05:51.570Z,1.87
2018-12-20T23:08:20.544Z,7.70
2018-12-20T23:10:49.001Z,1.50
2018-12-20T23:13:17.929Z,1.30
2018-12-20T23:15:46.414Z,1.60
2018-12-20T23:18:15.230Z,1.27
2018-12-20T23:20:43.702Z,1.30
2018-12-20T23:23:12.202Z,1.40
2018-12-20T23:25:40.802Z,1.37
2018-12-20T23:28:09.705Z,1.50
2018-12-20T23:30:38.174Z,1.40
2018-12-20T23:33:06.662Z,1.60
2018-12-20T23:35:35.110Z,1.47
2018-12-20T23:38:03.629Z,1.80
2018-12-20T23:40:32.113Z,2.20
2018-12-20T23:43:00.622Z,2.00
2018-12-20T23:45:29.076Z,2.43
2018-12-20T23:47:57.544Z,2.07
2018-12-20T23:50:26.029Z,2.00
2018-12-20T23:52:54.526Z,1.97
2018-12-20T23:55:23.770Z,2.00
2018-12-20T23:57:52.269Z,2.10
